Time;durP1;ratioP1;P1;durP2;ratioP2;P2;SDS_P1;SDS_P2;PMS_P1;PMS_P2;Temp;Humidity;BMP_temperature;BMP_pressure;BME280_temperature;BME280_humidity;BME280_pressure;Samples;Min_cycle;Max_cycle;Signal;HPM_P1;HPM_P2
2023/10/15 00:00:51;;;;;;;74.77;62.63;;;8.20;99.90;;;;;;5053237;28;20254;-78
2023/10/15 00:03:17;;;;;;;77.73;69.03;;;8.20;99.90;;;;;;5053284;28;20201;-77
2023/10/15 00:05:43;;;;;;;73.47;55.73;;;8.10;99.90;;;;;;5053715;28;20169;-77
2023/10/15 00:08:09;;;;;;;85.15;76.05;;;8.10;99.90;;;;;;5053407;28;20188;-77
2023/10/15 00:10:36;;;;;;;79.57;65.53;;;8.10;99.90;;;;;;5053690;28;20184;-77
2023/10/15 00:13:04;;;;;;;84.75;75.75;;;8.10;99.90;;;;;;5054086;28;20427;-77
2023/10/15 00:15:30;;;;;;;78.72;69.57;;;8.10;99.90;;;;;;5053958;28;20642;-77
2023/10/15 00:18:01;;;;;;;80.50;71.63;;;8.20;99.90;;;;;;5053893;28;20189;-77
2023/10/15 00:20:40;;;;;;;91.15;77.60;;;8.20;99.90;;;;;;5053500;28;20388;-77
2023/10/15 00:23:06;;;;;;;77.95;68.03;;;8.20;99.90;;;;;;5057051;28;20189;-77
2023/10/15 00:25:37;;;;;;;83.63;73.88;;;8.30;99.90;;;;;;5057732;28;20179;-77
2023/10/15 00:28:05;;;;;;;87.90;76.38;;;8.20;99.90;;;;;;5057714;28;20199;-77
2023/10/15 00:30:32;;;;;;;86.43;74.88;;;8.20;99.90;;;;;;5057492;28;20754;-77
2023/10/15 00:33:06;;;;;;;98.65;88.68;;;8.10;99.90;;;;;;5057529;28;20195;-77
2023/10/15 00:35:33;;;;;;;82.38;71.10;;;8.10;99.90;;;;;;5057535;28;20154;-77
2023/10/15 00:38:19;;;;;;;83.38;72.80;;;8.10;99.90;;;;;;5039662;28;20173;-77
2023/10/15 00:40:53;;;;;;;74.50;56.20;;;8.10;99.90;;;;;;5057392;28;20173;-77
2023/10/15 00:43:19;;;;;;;82.68;72.88;;;8.10;99.90;;;;;;5057095;28;20296;-77
2023/10/15 00:45:46;;;;;;;88.13;78.40;;;8.10;99.90;;;;;;5057600;28;20225;-77
2023/10/15 00:48:33;;;;;;;86.93;77.07;;;8.00;99.90;;;;;;5057775;28;20215;-78
2023/10/15 00:51:08;;;;;;;76.57;61.47;;;8.00;99.90;;;;;;5057021;28;20550;-78
2023/10/15 00:53:34;;;;;;;74.93;61.83;;;8.00;99.90;;;;;;5038569;28;20703;-78
2023/10/15 00:56:04;;;;;;;78.88;66.80;;;8.00;99.90;;;;;;5056458;28;20215;-78
2023/10/15 00:58:32;;;;;;;80.35;67.32;;;8.00;99.90;;;;;;5056445;28;20161;-78
2023/10/15 01:03:53;;;;;;;71.90;53.35;;;7.90;99.90;;;;;;5056752;28;20657;-78
2023/10/15 01:09:01;;;;;;;74.60;57.97;;;7.80;99.90;;;;;;5056397;28;20619;-78
2023/10/15 01:11:29;;;;;;;79.15;54.90;;;7.80;99.90;;;;;;5038260;28;20193;-78
2023/10/15 01:13:55;;;;;;;75.10;59.47;;;7.80;99.90;;;;;;5056088;28;20601;-78
2023/10/15 01:16:22;;;;;;;81.78;66.55;;;7.80;99.90;;;;;;5056327;28;20169;-78
2023/10/15 01:19:05;;;;;;;85.88;70.90;;;7.70;99.90;;;;;;5056080;28;20165;-78
2023/10/15 01:21:32;;;;;;;81.07;57.25;;;7.70;99.90;;;;;;5056321;28;20634;-78
2023/10/15 01:24:07;;;;;;;73.80;55.97;;;7.60;99.90;;;;;;5056805;28;20222;-78
2023/10/15 01:26:36;;;;;;;74.07;53.97;;;7.60;99.90;;;;;;5039086;28;20153;-78
2023/10/15 01:29:05;;;;;;;84.93;66.82;;;7.50;99.90;;;;;;5037888;28;20255;-78
2023/10/15 01:31:39;;;;;;;78.00;63.60;;;7.50;99.90;;;;;;5056100;28;20176;-78
2023/10/15 01:34:09;;;;;;;79.93;67.10;;;7.50;99.90;;;;;;5054914;28;20200;-77
2023/10/15 01:36:38;;;;;;;91.15;78.93;;;7.50;99.90;;;;;;5056247;28;20161;-77
2023/10/15 01:39:10;;;;;;;81.25;72.28;;;7.50;99.90;;;;;;5038623;28;20656;-77
2023/10/15 01:41:39;;;;;;;87.82;72.35;;;7.60;99.90;;;;;;5038394;28;20172;-77
2023/10/15 01:44:10;;;;;;;77.13;58.42;;;7.60;99.90;;;;;;5056117;28;20189;-77
2023/10/15 01:46:48;;;;;;;90.53;78.30;;;7.70;99.90;;;;;;5038138;28;20169;-77
2023/10/15 01:49:33;;;;;;;78.72;62.53;;;7.70;99.90;;;;;;5056474;28;20149;-77
2023/10/15 01:52:09;;;;;;;98.75;65.05;;;7.70;99.90;;;;;;5056194;28;20177;-78
2023/10/15 01:54:38;;;;;;;80.40;68.88;;;7.80;99.90;;;;;;5056108;28;20153;-77
2023/10/15 01:57:07;;;;;;;91.43;78.88;;;7.80;99.90;;;;;;5038254;28;20527;-77
2023/10/15 01:59:48;;;;;;;80.93;70.95;;;7.70;99.90;;;;;;5055781;28;20169;-77
2023/10/15 02:02:23;;;;;;;71.13;51.90;;;7.70;99.90;;;;;;5055805;28;20603;-77
2023/10/15 02:04:50;;;;;;;75.88;53.75;;;7.80;99.90;;;;;;5055593;28;20195;-77
2023/10/15 02:07:22;;;;;;;78.20;60.67;;;7.80;99.90;;;;;;5056021;28;20160;-77
2023/10/15 02:09:48;;;;;;;76.05;62.13;;;7.80;99.90;;;;;;5055641;28;20173;-77
2023/10/15 02:12:18;;;;;;;75.35;58.88;;;7.80;99.90;;;;;;5037686;28;20222;-77
2023/10/15 02:14:44;;;;;;;76.82;58.13;;;7.70;99.90;;;;;;5056605;28;20177;-77
2023/10/15 02:17:18;;;;;;;77.22;54.42;;;7.70;99.90;;;;;;5055498;28;20634;-77
2023/10/15 02:19:45;;;;;;;80.32;68.40;;;7.80;99.90;;;;;;5056905;28;20510;-78
2023/10/15 02:22:14;;;;;;;86.32;73.43;;;7.90;99.90;;;;;;5056154;28;20310;-78
2023/10/15 02:24:47;;;;;;;77.03;64.80;;;8.00;99.90;;;;;;5036840;28;20189;-78
2023/10/15 02:27:30;;;;;;;84.03;69.13;;;7.90;99.90;;;;;;5055048;28;20610;-78
2023/10/15 02:29:56;;;;;;;77.13;65.32;;;8.00;99.90;;;;;;5055008;28;20577;-78
2023/10/15 02:32:28;;;;;;;77.95;65.57;;;8.00;99.90;;;;;;5036745;28;20185;-78
2023/10/15 02:34:57;;;;;;;90.43;79.43;;;8.20;99.90;;;;;;5054724;28;20184;-78
2023/10/15 02:37:26;;;;;;;87.75;77.40;;;8.30;99.90;;;;;;5054545;28;20558;-78
2023/10/15 02:39:52;;;;;;;86.20;73.32;;;8.40;99.90;;;;;;5054469;28;20165;-78
2023/10/15 02:42:19;;;;;;;91.73;81.57;;;8.40;99.90;;;;;;5054636;28;20315;-78
2023/10/15 02:44:50;;;;;;;78.80;66.15;;;8.40;99.90;;;;;;5054226;28;20533;-78
2023/10/15 02:47:20;;;;;;;80.22;66.95;;;8.40;99.90;;;;;;5036476;28;20161;-78
2023/10/15 02:50:07;;;;;;;91.78;79.88;;;8.50;99.90;;;;;;5054160;28;20678;-78
2023/10/15 02:52:35;;;;;;;77.63;56.50;;;8.50;99.90;;;;;;5054249;28;20185;-78
2023/10/15 02:55:09;;;;;;;78.78;65.10;;;8.50;99.90;;;;;;5054430;28;20193;-78
2023/10/15 02:57:38;;;;;;;81.35;64.38;;;8.50;99.90;;;;;;5054290;28;20246;-78
2023/10/15 03:02:50;;;;;;;78.95;63.05;;;8.60;99.90;;;;;;5054538;28;20232;-77
2023/10/15 03:05:15;;;;;;;78.40;69.53;;;8.60;99.90;;;;;;5036360;28;20161;-78
2023/10/15 03:07:45;;;;;;;81.37;65.23;;;8.60;99.90;;;;;;5036301;28;20165;-77
2023/10/15 03:10:24;;;;;;;74.28;55.42;;;8.60;99.90;;;;;;5036705;28;20169;-77
2023/10/15 03:12:49;;;;;;;85.38;69.63;;;8.60;99.90;;;;;;5054947;28;20184;-78
2023/10/15 03:15:20;;;;;;;81.27;69.50;;;8.50;99.90;;;;;;5055189;28;20533;-77
2023/10/15 03:17:46;;;;;;;80.00;67.88;;;8.60;99.90;;;;;;5054461;28;20173;-77
2023/10/15 03:22:46;;;;;;;83.18;71.10;;;8.70;99.90;;;;;;5054623;28;20439;-77
2023/10/15 03:25:16;;;;;;;80.93;61.28;;;8.70;99.90;;;;;;5054351;28;20547;-77
2023/10/15 03:27:49;;;;;;;78.45;64.95;;;8.70;99.90;;;;;;5054231;28;20165;-77
2023/10/15 03:30:15;;;;;;;76.30;61.05;;;8.80;99.90;;;;;;5054241;28;20595;-77
2023/10/15 03:32:44;;;;;;;83.13;61.83;;;8.80;99.90;;;;;;5054042;28;20189;-77
2023/10/15 03:37:59;;;;;;;78.57;59.78;;;8.80;99.90;;;;;;5054758;28;20624;-77
2023/10/15 03:40:46;;;;;;;76.57;64.15;;;8.80;99.90;;;;;;5053998;28;20146;-77
2023/10/15 03:43:15;;;;;;;74.68;54.95;;;8.80;99.90;;;;;;5053912;28;20666;-77
2023/10/15 03:45:51;;;;;;;73.65;57.35;;;8.90;99.90;;;;;;5053804;28;20168;-77
2023/10/15 03:48:22;;;;;;;72.57;49.35;;;8.90;99.90;;;;;;5053920;28;20161;-77
2023/10/15 03:50:53;;;;;;;72.70;51.55;;;9.00;99.90;;;;;;5036418;28;20189;-77
2023/10/15 03:53:28;;;;;;;75.25;60.97;;;8.90;99.90;;;;;;5054270;28;20692;-78
2023/10/15 03:56:01;;;;;;;78.65;58.55;;;8.90;99.90;;;;;;5053325;28;20553;-78
2023/10/15 03:58:27;;;;;;;79.82;64.43;;;8.90;99.90;;;;;;5053234;28;20153;-78
2023/10/15 04:03:42;;;;;;;75.72;53.90;;;9.00;99.90;;;;;;5053091;28;20543;-78
2023/10/15 04:06:09;;;;;;;76.75;60.58;;;9.00;99.90;;;;;;5053061;28;20146;-78
2023/10/15 04:08:37;;;;;;;76.13;58.95;;;9.00;99.90;;;;;;5035207;28;20169;-78
2023/10/15 04:11:03;;;;;;;83.18;69.18;;;9.00;99.90;;;;;;5053320;28;20214;-78
2023/10/15 04:13:29;;;;;;;74.75;56.13;;;9.10;99.90;;;;;;5052919;28;20193;-78
2023/10/15 04:15:56;;;;;;;78.47;55.37;;;9.00;99.90;;;;;;5052987;28;20576;-78
2023/10/15 04:18:25;;;;;;;78.85;65.10;;;9.00;99.90;;;;;;5035072;28;20256;-78
2023/10/15 04:20:55;;;;;;;76.03;58.05;;;8.90;99.90;;;;;;5052953;28;20153;-78
2023/10/15 04:23:30;;;;;;;79.22;58.97;;;8.90;99.90;;;;;;5052861;28;20732;-78
2023/10/15 04:26:07;;;;;;;78.45;59.38;;;8.90;99.90;;;;;;5053185;28;20160;-78
2023/10/15 04:28:34;;;;;;;77.57;57.95;;;8.90;99.90;;;;;;5052906;28;20196;-78
2023/10/15 04:31:00;;;;;;;82.35;66.78;;;9.00;99.90;;;;;;5052887;28;20657;-78
2023/10/15 04:33:29;;;;;;;76.30;62.97;;;9.00;99.90;;;;;;5052762;28;20193;-78
2023/10/15 04:35:57;;;;;;;80.22;62.05;;;9.00;99.90;;;;;;5034931;28;20412;-78
2023/10/15 04:38:28;;;;;;;74.00;55.60;;;9.00;99.90;;;;;;5053521;28;20169;-77
2023/10/15 04:43:25;;;;;;;81.13;71.68;;;9.00;99.90;;;;;;5053546;28;20276;-77
2023/10/15 04:45:54;;;;;;;77.30;64.20;;;9.00;99.90;;;;;;5035450;28;20259;-77
2023/10/15 04:48:26;;;;;;;80.07;64.47;;;9.00;99.90;;;;;;5053427;28;20223;-77
2023/10/15 04:50:52;;;;;;;77.00;65.15;;;9.00;99.90;;;;;;5053135;28;20204;-77
2023/10/15 04:55:52;;;;;;;74.75;60.08;;;9.00;99.90;;;;;;5053566;28;20626;-77
2023/10/15 04:58:18;;;;;;;87.43;72.30;;;9.00;99.90;;;;;;5053237;28;20166;-77
2023/10/15 05:00:48;;;;;;;75.60;60.17;;;9.10;99.90;;;;;;5053031;28;20165;-77
2023/10/15 05:03:14;;;;;;;76.78;62.72;;;9.10;99.90;;;;;;5035128;28;20231;-77
2023/10/15 05:05:43;;;;;;;79.88;68.25;;;9.10;99.90;;;;;;5053165;28;20173;-77
2023/10/15 05:08:13;;;;;;;77.25;58.20;;;9.10;99.90;;;;;;5053452;28;20176;-77
2023/10/15 05:10:50;;;;;;;76.95;57.30;;;9.10;99.90;;;;;;5056768;28;20653;-77
2023/10/15 05:13:16;;;;;;;74.90;53.85;;;9.10;99.90;;;;;;5056788;28;20192;-77
2023/10/15 05:15:49;;;;;;;73.80;52.15;;;9.20;99.90;;;;;;5056822;28;20218;-77
2023/10/15 05:18:15;;;;;;;72.68;55.25;;;9.20;99.90;;;;;;5056714;28;20192;-77
2023/10/15 05:20:47;;;;;;;71.60;47.50;;;9.20;99.90;;;;;;5056712;28;20165;-77
2023/10/15 05:23:13;;;;;;;73.40;51.03;;;9.20;99.90;;;;;;5056955;28;20226;-78
2023/10/15 05:25:39;;;;;;;73.88;55.30;;;9.10;99.90;;;;;;5039811;28;20173;-78
2023/10/15 05:28:06;;;;;;;79.37;63.53;;;9.10;99.90;;;;;;5056004;28;20177;-78
2023/10/15 05:30:32;;;;;;;76.63;56.03;;;9.00;99.90;;;;;;5054577;28;20415;-78
2023/10/15 05:33:01;;;;;;;84.60;75.32;;;8.90;99.90;;;;;;5056018;28;20282;-77
2023/10/15 05:35:30;;;;;;;86.75;73.93;;;8.80;99.90;;;;;;5056003;28;20162;-78
2023/10/15 05:37:56;;;;;;;81.60;70.43;;;8.80;99.90;;;;;;5055889;28;20228;-78
2023/10/15 05:40:22;;;;;;;73.57;54.70;;;8.80;99.90;;;;;;5037767;28;20641;-78
2023/10/15 05:42:48;;;;;;;86.78;74.38;;;8.90;99.90;;;;;;5055757;28;20781;-78
2023/10/15 05:45:20;;;;;;;80.47;66.03;;;9.00;99.90;;;;;;5055695;28;20169;-78
2023/10/15 05:47:46;;;;;;;81.95;69.43;;;9.00;99.90;;;;;;5055609;28;20149;-78
2023/10/15 05:50:13;;;;;;;78.20;64.70;;;9.00;99.90;;;;;;5037460;28;20654;-77
2023/10/15 05:52:39;;;;;;;77.97;61.60;;;9.00;99.90;;;;;;5055493;28;20662;-77
2023/10/15 05:55:06;;;;;;;86.65;76.57;;;9.00;99.90;;;;;;5037358;28;20575;-77
2023/10/15 05:57:33;;;;;;;82.32;73.07;;;9.00;99.90;;;;;;5055857;28;20192;-77
2023/10/15 06:00:17;;;;;;;89.28;80.10;;;9.00;99.90;;;;;;5055585;28;20566;-77
2023/10/15 06:02:43;;;;;;;102.90;93.03;;;9.00;99.90;;;;;;5055176;28;20549;-77
2023/10/15 06:05:11;;;;;;;86.70;72.53;;;9.00;99.90;;;;;;5055175;28;20172;-77
2023/10/15 06:07:37;;;;;;;111.72;101.38;;;9.10;99.90;;;;;;5037286;28;20237;-77
2023/10/15 06:10:03;;;;;;;124.15;112.95;;;9.10;99.90;;;;;;5055036;28;20528;-76
2023/10/15 06:12:29;;;;;;;115.43;104.83;;;9.10;99.90;;;;;;5055070;28;20181;-76
2023/10/15 06:14:55;;;;;;;115.05;104.40;;;9.10;99.90;;;;;;5054933;28;20455;-76
2023/10/15 06:17:20;;;;;;;122.00;111.20;;;9.10;99.90;;;;;;5054932;28;20165;-76
2023/10/15 06:19:47;;;;;;;124.87;113.67;;;9.10;99.90;;;;;;5054654;28;20520;-76
2023/10/15 06:22:12;;;;;;;121.72;110.57;;;9.10;99.90;;;;;;5054827;28;20419;-76
2023/10/15 06:24:38;;;;;;;122.10;111.00;;;9.10;99.90;;;;;;5054829;28;20171;-76
2023/10/15 06:27:04;;;;;;;124.10;113.10;;;9.00;99.90;;;;;;5054783;28;20200;-76
2023/10/15 06:29:29;;;;;;;104.70;94.73;;;9.00;99.90;;;;;;5055019;28;20522;-77
2023/10/15 06:31:55;;;;;;;124.47;113.30;;;9.00;99.90;;;;;;5054940;28;20219;-76
2023/10/15 06:34:22;;;;;;;113.33;102.80;;;9.00;99.90;;;;;;5054618;28;20565;-76
2023/10/15 06:36:47;;;;;;;141.88;130.52;;;9.00;99.90;;;;;;5054568;28;20196;-76
2023/10/15 06:39:16;;;;;;;150.52;138.65;;;9.00;99.90;;;;;;5036642;28;20215;-76
2023/10/15 06:41:44;;;;;;;160.10;147.80;;;8.90;99.90;;;;;;5054438;28;20523;-77
2023/10/15 06:44:10;;;;;;;150.63;138.82;;;9.00;99.90;;;;;;5054414;28;20643;-76
2023/10/15 06:46:41;;;;;;;114.00;103.60;;;9.10;99.90;;;;;;5054961;28;20180;-77
2023/10/15 06:49:10;;;;;;;117.75;107.15;;;9.10;99.90;;;;;;5054476;28;20731;-77
2023/10/15 06:51:39;;;;;;;146.63;134.85;;;9.20;99.90;;;;;;5054437;28;20181;-77
2023/10/15 06:54:05;;;;;;;151.50;139.60;;;9.10;99.90;;;;;;5054485;28;20201;-77
2023/10/15 06:56:31;;;;;;;121.60;111.43;;;9.10;99.90;;;;;;5054849;28;20242;-77
2023/10/15 06:58:57;;;;;;;151.90;139.90;;;9.20;99.90;;;;;;5054673;28;20146;-78
2023/10/15 07:01:26;;;;;;;149.13;137.27;;;9.30;99.90;;;;;;5036352;28;20527;-77
2023/10/15 07:03:52;;;;;;;154.55;142.65;;;9.30;99.90;;;;;;5054182;28;20574;-77
2023/10/15 07:06:19;;;;;;;142.67;130.93;;;9.30;99.90;;;;;;5054693;28;20164;-77
2023/10/15 07:08:45;;;;;;;160.98;148.45;;;9.30;99.90;;;;;;5053950;28;20169;-77
2023/10/15 07:11:10;;;;;;;136.93;125.77;;;9.40;99.90;;;;;;5053957;28;20165;-77
2023/10/15 07:13:36;;;;;;;168.00;155.23;;;9.40;99.90;;;;;;5053975;28;20193;-77
2023/10/15 07:16:02;;;;;;;136.90;125.73;;;9.40;99.90;;;;;;5036009;28;20169;-78
2023/10/15 07:18:28;;;;;;;127.97;117.20;;;9.50;99.90;;;;;;5053817;28;20407;-77
2023/10/15 07:20:58;;;;;;;151.73;139.82;;;9.50;99.90;;;;;;5035891;28;20202;-77
2023/10/15 07:23:23;;;;;;;123.50;113.10;;;9.50;99.90;;;;;;5035659;28;20189;-77
2023/10/15 07:25:49;;;;;;;132.03;121.40;;;9.50;99.90;;;;;;5053716;28;20162;-78
2023/10/15 07:28:15;;;;;;;124.60;114.10;;;9.50;99.90;;;;;;5053630;28;20180;-78
2023/10/15 07:30:42;;;;;;;128.03;117.50;;;9.40;99.90;;;;;;5053182;28;20165;-77
2023/10/15 07:33:08;;;;;;;142.90;131.57;;;9.40;99.90;;;;;;5053193;28;20216;-77
2023/10/15 07:35:35;;;;;;;169.05;156.55;;;9.40;99.90;;;;;;5053754;28;20700;-78
2023/10/15 07:38:04;;;;;;;155.35;143.43;;;9.40;99.90;;;;;;5053453;28;20665;-77
2023/10/15 07:40:32;;;;;;;139.90;128.73;;;9.40;99.90;;;;;;5053372;28;20161;-78
2023/10/15 07:42:59;;;;;;;140.00;128.48;;;9.50;99.90;;;;;;5053506;28;20181;-77
2023/10/15 07:45:30;;;;;;;132.73;121.55;;;9.50;99.90;;;;;;5053826;28;20244;-77
2023/10/15 07:48:01;;;;;;;144.63;132.90;;;9.60;99.90;;;;;;5054046;28;20145;-77
2023/10/15 07:50:28;;;;;;;129.68;119.18;;;9.60;99.90;;;;;;5035776;28;20263;-77
2023/10/15 07:52:54;;;;;;;127.85;117.40;;;9.70;99.90;;;;;;5053648;28;20177;-77
2023/10/15 07:55:24;;;;;;;133.20;122.20;;;9.70;99.90;;;;;;5035631;28;20169;-77
2023/10/15 07:57:50;;;;;;;142.05;130.68;;;9.70;99.90;;;;;;5054026;28;20227;-77
2023/10/15 08:00:33;;;;;;;125.43;114.68;;;9.80;99.90;;;;;;5053567;28;20192;-77
2023/10/15 08:03:00;;;;;;;118.18;107.22;;;9.80;99.90;;;;;;5053519;28;20173;-77
2023/10/15 08:05:31;;;;;;;114.95;104.70;;;9.90;99.90;;;;;;5035533;28;20252;-77
2023/10/15 08:07:57;;;;;;;115.35;105.30;;;9.90;99.90;;;;;;5053451;28;20149;-77
2023/10/15 08:10:24;;;;;;;145.30;133.82;;;9.90;99.90;;;;;;5035290;28;20164;-77
2023/10/15 08:12:52;;;;;;;110.13;99.93;;;9.90;99.90;;;;;;5053259;28;20188;-77
2023/10/15 08:15:18;;;;;;;141.00;129.27;;;9.90;99.90;;;;;;5035285;28;20577;-77
2023/10/15 08:17:46;;;;;;;134.50;123.15;;;9.90;99.90;;;;;;5053089;28;20165;-77
2023/10/15 08:20:12;;;;;;;134.63;123.80;;;9.90;99.90;;;;;;5053221;28;20184;-77
2023/10/15 08:22:40;;;;;;;114.07;104.20;;;9.90;99.90;;;;;;5052996;28;20196;-77
2023/10/15 08:25:13;;;;;;;90.07;80.63;;;9.90;99.90;;;;;;5052924;28;20157;-76
2023/10/15 08:27:48;;;;;;;113.05;102.85;;;9.90;99.90;;;;;;5051615;28;20627;-77
2023/10/15 08:30:17;;;;;;;111.85;101.75;;;9.90;99.90;;;;;;5053037;28;20188;-77
2023/10/15 08:32:44;;;;;;;125.15;114.45;;;10.00;99.90;;;;;;5052740;28;20184;-77
2023/10/15 08:35:13;;;;;;;128.65;117.15;;;9.90;99.90;;;;;;5052706;28;20539;-77
2023/10/15 08:37:40;;;;;;;132.95;122.00;;;9.90;99.90;;;;;;5034902;28;20165;-77
2023/10/15 08:40:06;;;;;;;93.00;82.40;;;9.90;99.90;;;;;;5052772;28;20161;-77
2023/10/15 08:43:05;;;;;;;117.72;106.80;;;9.80;99.90;;;;;;5053621;28;20657;-77
2023/10/15 08:45:32;;;;;;;107.68;97.45;;;9.90;99.90;;;;;;5056583;28;20613;-77
2023/10/15 08:48:00;;;;;;;126.85;115.57;;;9.90;99.90;;;;;;5056876;28;20626;-77
2023/10/15 08:50:26;;;;;;;110.53;100.75;;;9.90;99.90;;;;;;5056681;28;20712;-77
2023/10/15 08:52:54;;;;;;;121.60;111.10;;;10.00;99.90;;;;;;5056385;28;20227;-77
2023/10/15 08:55:24;;;;;;;120.70;110.10;;;10.00;99.90;;;;;;5056478;28;20162;-77
2023/10/15 08:57:56;;;;;;;144.13;132.85;;;10.10;99.90;;;;;;5056486;28;20203;-77
2023/10/15 09:00:27;;;;;;;106.18;96.40;;;10.10;99.90;;;;;;5056418;28;20510;-77
2023/10/15 09:02:54;;;;;;;114.65;104.43;;;10.20;99.90;;;;;;5056563;28;20185;-77
2023/10/15 09:05:20;;;;;;;86.63;77.75;;;10.30;99.90;;;;;;5056308;28;20196;-77
2023/10/15 09:07:47;;;;;;;94.20;84.80;;;10.30;99.90;;;;;;5056276;28;20207;-77
2023/10/15 09:10:15;;;;;;;84.50;75.47;;;10.30;99.90;;;;;;5056254;28;20161;-77
2023/10/15 09:12:41;;;;;;;76.97;67.00;;;10.30;99.90;;;;;;5056359;28;20180;-77
2023/10/15 09:15:15;;;;;;;77.00;65.40;;;10.20;99.90;;;;;;5056377;28;20189;-77
2023/10/15 09:17:57;;;;;;;88.43;79.47;;;10.20;99.90;;;;;;5038236;28;20206;-77
2023/10/15 09:20:27;;;;;;;80.80;71.95;;;10.30;99.90;;;;;;5038125;28;20643;-77
2023/10/15 09:22:57;;;;;;;83.20;73.78;;;10.40;99.90;;;;;;5056192;28;20239;-77
2023/10/15 09:25:24;;;;;;;76.63;67.75;;;10.50;99.90;;;;;;5056228;28;20161;-77
2023/10/15 09:27:53;;;;;;;100.18;90.72;;;10.40;99.90;;;;;;5055902;28;20172;-77
2023/10/15 09:30:25;;;;;;;78.93;68.65;;;10.50;99.90;;;;;;5055905;28;20157;-77
2023/10/15 09:32:51;;;;;;;82.22;73.45;;;10.50;99.90;;;;;;5055713;28;20189;-77
2023/10/15 09:35:17;;;;;;;77.73;66.43;;;10.60;99.90;;;;;;5055757;28;20169;-77
2023/10/15 09:37:46;;;;;;;74.20;61.65;;;10.70;99.90;;;;;;5055723;28;20162;-77
2023/10/15 09:40:23;;;;;;;73.32;56.45;;;10.70;97.40;;;;;;5037738;28;20575;-77
2023/10/15 09:42:55;;;;;;;95.97;86.80;;;10.80;99.00;;;;;;5055541;28;20197;-77
2023/10/15 09:45:24;;;;;;;98.72;89.47;;;10.90;99.90;;;;;;5055820;28;20172;-77
2023/10/15 09:47:57;;;;;;;96.97;87.75;;;11.00;99.90;;;;;;5055651;28;20162;-77
2023/10/15 09:50:38;;;;;;;76.65;65.57;;;11.10;99.90;;;;;;5055615;28;20573;-77
2023/10/15 09:53:11;;;;;;;75.53;62.15;;;11.20;93.80;;;;;;5037522;28;20604;-77
2023/10/15 09:55:40;;;;;;;73.72;61.78;;;11.30;91.30;;;;;;5054944;28;20149;-77
2023/10/15 09:58:06;;;;;;;74.00;62.28;;;11.20;82.00;;;;;;5055855;28;20638;-77
2023/10/15 10:00:59;;;;;;;73.43;61.30;;;11.10;81.70;;;;;;5055617;28;20630;-77
2023/10/15 10:03:47;;;;;;;74.60;63.85;;;11.20;80.60;;;;;;5056820;28;20184;-77
2023/10/15 10:06:37;;;;;;;72.85;56.17;;;11.20;87.50;;;;;;5055769;28;20595;-77
2023/10/15 10:09:16;;;;;;;85.25;76.07;;;11.30;90.00;;;;;;5055435;28;20207;-77
2023/10/15 10:12:19;;;;;;;75.55;60.22;;;11.30;85.20;;;;;;5055049;28;20153;-77
2023/10/15 10:14:57;;;;;;;68.45;45.15;;;11.40;74.40;;;;;;5055017;28;20188;-77
2023/10/15 10:17:25;;;;;;;69.72;51.08;;;11.30;63.30;;;;;;5054999;28;20214;-77
2023/10/15 10:19:52;;;;;;;70.32;52.42;;;11.30;57.60;;;;;;5055220;28;20249;-77
2023/10/15 10:22:25;;;;;;;71.53;55.45;;;11.30;58.30;;;;;;5055333;28;20658;-78
2023/10/15 10:24:52;;;;;;;68.70;45.85;;;11.30;47.10;;;;;;5054840;28;20580;-77
2023/10/15 10:27:18;;;;;;;68.65;50.47;;;11.30;46.20;;;;;;5054812;28;20197;-77
2023/10/15 10:29:49;;;;;;;67.37;43.77;;;11.30;39.70;;;;;;5054793;28;20204;-77
2023/10/15 10:32:17;;;;;;;69.82;51.28;;;11.30;53.50;;;;;;5054643;28;20416;-78
2023/10/15 10:34:44;;;;;;;73.43;58.97;;;11.30;45.30;;;;;;5054500;28;20227;-77
2023/10/15 10:37:23;;;;;;;81.40;61.50;;;11.30;43.00;;;;;;5054615;28;20658;-77
2023/10/15 10:39:49;;;;;;;72.43;55.15;;;11.30;41.30;;;;;;5036698;28;20200;-77
2023/10/15 10:42:26;;;;;;;72.90;60.73;;;11.30;52.90;;;;;;5054478;28;20220;-77
2023/10/15 10:44:56;;;;;;;78.45;57.13;;;11.30;42.90;;;;;;5054451;28;20407;-77
2023/10/15 10:47:29;;;;;;;72.93;52.85;;;11.20;48.40;;;;;;5054722;28;20169;-77
2023/10/15 10:50:00;;;;;;;73.03;52.85;;;11.20;50.90;;;;;;5036488;28;20181;-77
2023/10/15 10:52:34;;;;;;;75.97;54.47;;;11.40;49.90;;;;;;5036442;28;20267;-77
2023/10/15 10:55:32;;;;;;;71.35;56.20;;;11.30;23.20;;;;;;5054601;28;20185;-77
2023/10/15 10:58:00;;;;;;;69.95;52.97;;;11.20;43.90;;;;;;5031273;28;20191;-77
2023/10/15 11:00:33;;;;;;;80.93;54.60;;;11.30;38.60;;;;;;5055227;28;20168;-77
2023/10/15 11:03:06;;;;;;;74.25;61.10;;;11.40;32.70;;;;;;5054393;28;20177;-77
2023/10/15 11:05:34;;;;;;;70.65;57.38;;;11.40;23.00;;;;;;5054158;28;20157;-77
2023/10/15 11:08:00;;;;;;;73.25;59.53;;;11.30;30.10;;;;;;5036285;28;20255;-77
2023/10/15 11:10:31;;;;;;;72.13;60.40;;;11.30;25.40;;;;;;5036329;28;20176;-77
2023/10/15 11:12:57;;;;;;;70.32;58.10;;;11.20;16.40;;;;;;5053781;28;20743;-77
2023/10/15 11:15:24;;;;;;;75.13;60.67;;;11.10;27.30;;;;;;5053868;28;20161;-77
2023/10/15 11:17:56;;;;;;;72.90;56.85;;;11.10;37.70;;;;;;5053916;28;20545;-77
2023/10/15 11:20:25;;;;;;;73.60;51.05;;;11.20;54.80;;;;;;5053746;28;20165;-77
2023/10/15 11:22:51;;;;;;;69.50;52.05;;;11.30;50.20;;;;;;5052482;28;20185;-77
2023/10/15 11:25:19;;;;;;;72.83;56.70;;;11.30;52.30;;;;;;5053743;28;20167;-77
2023/10/15 11:27:45;;;;;;;76.40;67.80;;;11.40;57.90;;;;;;5053757;28;20165;-77
2023/10/15 11:30:13;;;;;;;71.77;57.77;;;11.60;43.20;;;;;;5053812;28;20219;-77
2023/10/15 11:32:39;;;;;;;73.03;63.35;;;11.60;44.50;;;;;;5036334;28;20436;-77
2023/10/15 11:35:07;;;;;;;74.63;62.73;;;11.60;34.30;;;;;;5055820;28;20700;-77
2023/10/15 11:37:35;;;;;;;73.75;62.55;;;11.50;39.70;;;;;;5038150;28;20164;-77
2023/10/15 11:40:00;;;;;;;77.40;65.40;;;11.80;42.30;;;;;;5053499;28;20158;-77
2023/10/15 11:42:28;;;;;;;73.80;64.00;;;11.90;29.40;;;;;;5053438;28;20559;-77
2023/10/15 11:45:16;;;;;;;83.65;75.07;;;12.00;24.80;;;;;;5053384;28;20189;-78
2023/10/15 11:47:44;;;;;;;72.30;63.58;;;12.20;28.00;;;;;;5035747;28;20219;-77
2023/10/15 11:50:12;;;;;;;77.15;68.80;;;12.40;22.20;;;;;;5035501;28;20192;-78
2023/10/15 11:52:44;;;;;;;74.35;62.90;;;12.30;10.70;;;;;;5053520;28;20193;-77
2023/10/15 11:55:19;;;;;;;84.18;75.30;;;12.40;17.10;;;;;;5053133;28;20180;-77
2023/10/15 11:57:52;;;;;;;78.53;66.50;;;12.50;10.00;;;;;;5053491;28;20153;-78
2023/10/15 12:00:33;;;;;;;68.82;52.83;;;12.70;1.00;;;;;;5035354;28;20164;-77
2023/10/15 12:03:05;;;;;;;68.85;48.63;;;12.90;1.00;;;;;;5053103;28;20587;-77
2023/10/15 12:05:32;;;;;;;64.97;45.22;;;13.10;1.00;;;;;;5053226;28;20495;-77
2023/10/15 12:08:04;;;;;;;64.75;45.63;;;13.10;1.00;;;;;;5053253;28;20169;-77
2023/10/15 12:10:31;;;;;;;69.70;56.67;;;13.00;1.00;;;;;;5053185;28;20764;-77
2023/10/15 12:12:58;;;;;;;68.97;45.92;;;12.80;1.00;;;;;;5052906;28;20213;-77
2023/10/15 12:15:29;;;;;;;61.95;36.55;;;12.80;1.00;;;;;;5035123;28;20167;-77
2023/10/15 12:17:56;;;;;;;67.70;43.58;;;12.70;1.00;;;;;;5034741;28;20154;-77
2023/10/15 12:20:24;;;;;;;61.13;33.85;;;12.80;1.00;;;;;;5053332;28;20162;-77
2023/10/15 12:22:50;;;;;;;63.58;37.70;;;12.90;1.00;;;;;;5052917;28;20177;-77
2023/10/15 12:25:16;;;;;;;58.87;30.93;;;13.10;1.00;;;;;;5053229;28;20176;-77
2023/10/15 12:27:41;;;;;;;69.27;34.87;;;13.20;1.00;;;;;;5053029;28;20195;-77
2023/10/15 12:30:13;;;;;;;60.10;29.17;;;13.30;1.00;;;;;;5053164;28;20165;-77
2023/10/15 12:32:39;;;;;;;57.47;28.80;;;13.40;1.00;;;;;;5036197;28;20200;-77
2023/10/15 12:35:11;;;;;;;60.90;35.50;;;13.20;1.00;;;;;;5052899;28;20192;-77
2023/10/15 12:37:38;;;;;;;60.33;35.60;;;13.20;1.00;;;;;;5053477;28;20172;-77
2023/10/15 12:40:12;;;;;;;59.78;34.55;;;13.10;1.00;;;;;;5052915;28;20408;-77
2023/10/15 12:42:39;;;;;;;62.88;31.60;;;13.20;1.00;;;;;;5051499;28;20184;-77
2023/10/15 12:45:09;;;;;;;60.27;31.90;;;13.30;1.00;;;;;;5053021;28;20232;-77
2023/10/15 12:47:36;;;;;;;57.75;29.63;;;13.40;1.00;;;;;;5053169;28;20400;-77
2023/10/15 12:50:04;;;;;;;61.08;31.98;;;13.40;1.00;;;;;;5052493;28;20162;-77
2023/10/15 12:52:31;;;;;;;56.87;31.77;;;13.30;1.00;;;;;;5052763;28;20197;-77
2023/10/15 12:54:58;;;;;;;57.58;28.33;;;13.20;1.00;;;;;;5053454;28;20454;-77
2023/10/15 12:57:24;;;;;;;57.50;29.00;;;13.20;1.00;;;;;;5035090;28;20166;-77
2023/10/15 12:59:50;;;;;;;57.80;29.47;;;13.10;1.00;;;;;;5052878;28;20422;-77
2023/10/15 13:02:20;;;;;;;56.73;27.07;;;13.00;1.00;;;;;;5052782;28;20427;-77
2023/10/15 13:04:48;;;;;;;56.80;26.48;;;12.70;1.00;;;;;;5052732;28;20614;-78